createdAt,value
2018-03-24T00:01:56.022Z,1.60
2018-03-24T00:04:28.923Z,1.60
2018-03-24T00:07:11.867Z,1.60
2018-03-24T00:09:39.931Z,1.60
2018-03-24T00:12:08.887Z,1.50
2018-03-24T00:14:38.960Z,1.50
2018-03-24T00:17:08.039Z,1.50
2018-03-24T00:19:36.259Z,1.50
2018-03-24T00:22:10.967Z,1.50
2018-03-24T00:24:39.015Z,1.50
2018-03-24T00:27:07.102Z,1.40
2018-03-24T00:29:40.848Z,1.40
2018-03-24T00:32:10.885Z,1.50
2018-03-24T00:34:40.675Z,1.50
2018-03-24T00:37:11.462Z,1.60
2018-03-24T00:39:39.703Z,1.60
2018-03-24T00:42:07.739Z,1.60
2018-03-24T00:44:46.115Z,1.60
2018-03-24T00:47:15.059Z,1.60
2018-03-24T00:49:45.430Z,1.50
2018-03-24T00:52:14.510Z,1.40
2018-03-24T00:54:43.539Z,1.40
2018-03-24T00:57:12.771Z,1.40
2018-03-24T00:59:42.646Z,1.30
2018-03-24T01:02:13.910Z,1.30
2018-03-24T01:04:47.851Z,1.50
2018-03-24T01:07:17.646Z,1.60
2018-03-24T01:09:51.367Z,1.60
2018-03-24T01:12:20.570Z,1.60
2018-03-24T01:14:50.575Z,1.70
2018-03-24T01:17:19.610Z,1.80
2018-03-24T01:19:52.348Z,1.80
2018-03-24T01:22:31.155Z,1.70
2018-03-24T01:25:02.938Z,1.70
2018-03-24T01:27:32.990Z,1.70
2018-03-24T01:30:11.659Z,1.70
2018-03-24T01:32:45.322Z,1.70
2018-03-24T01:35:26.878Z,1.70
2018-03-24T01:38:04.003Z,1.70
2018-03-24T01:40:33.024Z,1.70
2018-03-24T01:43:01.594Z,1.70
2018-03-24T01:45:30.742Z,1.80
2018-03-24T01:48:02.942Z,1.70
2018-03-24T01:50:30.982Z,1.80
2018-03-24T01:52:59.254Z,1.80
2018-03-24T01:55:34.194Z,1.70
2018-03-24T01:58:05.834Z,1.80
2018-03-24T02:00:40.494Z,1.70
2018-03-24T02:03:13.190Z,1.70
2018-03-24T02:05:46.849Z,1.70
2018-03-24T02:08:18.638Z,1.70
2018-03-24T02:10:51.690Z,1.70
2018-03-24T02:13:21.807Z,1.70
2018-03-24T02:15:56.702Z,1.70
2018-03-24T02:18:33.217Z,1.70
2018-03-24T02:21:03.466Z,1.70
2018-03-24T02:23:31.538Z,1.70
2018-03-24T02:26:06.151Z,1.70
2018-03-24T02:28:34.922Z,1.60
2018-03-24T02:31:03.439Z,1.40
2018-03-24T02:33:38.255Z,1.20
2018-03-24T02:36:07.873Z,1.10
2018-03-24T02:38:38.582Z,0.80
2018-03-24T02:41:08.638Z,0.80
2018-03-24T02:43:38.979Z,0.60
2018-03-24T02:46:08.970Z,0.60
2018-03-24T02:48:49.762Z,0.70
2018-03-24T02:51:25.498Z,0.80
2018-03-24T02:53:54.489Z,0.90
2018-03-24T02:59:28.605Z,0.90
2018-03-24T03:01:58.630Z,0.80
2018-03-24T03:04:32.170Z,0.60
2018-03-24T03:07:00.228Z,0.50
2018-03-24T03:09:28.270Z,0.40
2018-03-24T03:12:13.825Z,0.50
2018-03-24T03:14:44.089Z,0.50
2018-03-24T03:17:12.161Z,0.70
2018-03-24T03:19:42.906Z,0.60
2018-03-24T03:22:17.065Z,0.60
2018-03-24T03:24:56.877Z,0.60
2018-03-24T03:27:37.869Z,0.50
2018-03-24T03:30:22.702Z,0.60
2018-03-24T03:32:50.998Z,0.60
2018-03-24T03:35:19.777Z,0.50
2018-03-24T03:37:47.830Z,0.50
2018-03-24T03:40:18.037Z,0.40
2018-03-24T03:42:48.033Z,0.20
2018-03-24T03:45:20.621Z,0.20
2018-03-24T03:47:56.433Z,0.20
2018-03-24T03:50:29.129Z,0.20
2018-03-24T03:53:02.229Z,0.30
2018-03-24T03:55:31.142Z,0.30
2018-03-24T03:58:06.602Z,0.30
2018-03-24T04:00:37.453Z,0.20
2018-03-24T04:03:05.535Z,0.00
2018-03-24T04:05:39.245Z,-0.10
2018-03-24T04:08:09.318Z,0.00
2018-03-24T04:10:38.494Z,0.00
2018-03-24T04:13:09.265Z,0.00
2018-03-24T04:15:49.453Z,0.00
2018-03-24T04:18:21.807Z,0.20
2018-03-24T04:20:55.933Z,0.20
2018-03-24T04:23:24.973Z,0.10
2018-03-24T04:25:55.517Z,0.10
2018-03-24T04:28:28.877Z,0.10
2018-03-24T04:30:57.885Z,0.20
2018-03-24T04:33:39.334Z,0.30
2018-03-24T04:36:11.617Z,0.30
2018-03-24T04:38:42.269Z,0.40
2018-03-24T04:41:11.057Z,0.30
2018-03-24T04:43:41.285Z,0.30
2018-03-24T04:46:09.345Z,0.30
2018-03-24T04:48:41.853Z,-0.10
2018-03-24T04:51:17.729Z,-0.10
2018-03-24T04:53:47.673Z,-0.30
2018-03-24T04:56:18.745Z,-0.50
2018-03-24T04:58:46.801Z,-0.60
2018-03-24T05:01:20.284Z,-0.80
2018-03-24T05:03:51.149Z,-0.80
2018-03-24T05:06:19.717Z,-0.90
2018-03-24T05:09:06.324Z,-0.90
2018-03-24T05:11:39.243Z,-1.00
2018-03-24T05:14:09.189Z,-1.00
2018-03-24T05:16:37.217Z,-1.10
2018-03-24T05:19:05.245Z,-1.20
2018-03-24T05:21:43.497Z,-1.20
2018-03-24T05:24:17.272Z,-1.30
2018-03-24T05:26:58.770Z,-1.20
2018-03-24T05:29:34.756Z,-1.20
2018-03-24T05:32:03.781Z,-1.10
2018-03-24T05:34:31.808Z,-0.70
2018-03-24T05:37:08.189Z,-0.60
2018-03-24T05:39:47.012Z,-0.40
2018-03-24T05:42:15.045Z,-0.30
2018-03-24T05:44:45.011Z,-0.10
2018-03-24T05:47:15.041Z,-0.10
2018-03-24T05:49:48.841Z,0.00
2018-03-24T05:52:18.863Z,0.00
2018-03-24T05:54:47.836Z,0.00
2018-03-24T05:57:16.832Z,0.10
2018-03-24T05:59:48.892Z,0.10
2018-03-24T06:02:23.509Z,0.10
2018-03-24T06:04:51.524Z,0.10
2018-03-24T06:07:31.939Z,0.30
2018-03-24T06:10:05.064Z,0.30
2018-03-24T06:12:35.080Z,0.30
2018-03-24T06:15:08.872Z,0.40
2018-03-24T06:17:43.144Z,0.40
2018-03-24T06:20:11.173Z,0.50
2018-03-24T06:22:39.980Z,0.90
2018-03-24T06:25:08.017Z,0.90
2018-03-24T06:27:36.044Z,1.00
2018-03-24T06:30:12.629Z,1.10
2018-03-24T06:32:41.640Z,1.20
2018-03-24T06:35:10.649Z,1.30
2018-03-24T06:37:38.676Z,1.50
2018-03-24T06:40:08.460Z,1.70
2018-03-24T06:42:37.410Z,1.60
2018-03-24T06:45:08.749Z,1.80
2018-03-24T06:47:38.783Z,2.00
2018-03-24T06:50:10.044Z,1.90
2018-03-24T06:52:39.028Z,2.00
2018-03-24T06:55:09.236Z,2.10
2018-03-24T06:57:42.472Z,2.20
2018-03-24T07:00:11.432Z,2.20
2018-03-24T07:02:58.488Z,2.50
2018-03-24T07:05:32.244Z,2.40
2018-03-24T07:08:01.255Z,2.60
2018-03-24T07:10:30.040Z,2.70
2018-03-24T07:13:04.775Z,2.80
2018-03-24T07:15:41.592Z,2.80
2018-03-24T07:18:11.543Z,2.80
2018-03-24T07:20:51.584Z,3.00
2018-03-24T07:23:23.664Z,3.10
2018-03-24T07:25:56.420Z,3.70
2018-03-24T07:28:24.471Z,3.70
2018-03-24T07:30:53.504Z,3.70
2018-03-24T07:33:21.527Z,3.40
2018-03-24T07:35:54.560Z,3.20
2018-03-24T07:38:23.524Z,3.10
2018-03-24T07:40:58.072Z,3.00
2018-03-24T07:43:34.107Z,3.00
2018-03-24T07:46:04.028Z,3.00
2018-03-24T07:48:44.452Z,3.10
2018-03-24T07:51:19.076Z,3.10
2018-03-24T07:54:03.500Z,3.20
2018-03-24T07:56:40.407Z,3.30
2018-03-24T07:59:20.972Z,3.20
2018-03-24T08:02:05.593Z,3.30
2018-03-24T08:04:41.687Z,4.30
2018-03-24T08:07:09.704Z,4.30
2018-03-24T08:09:42.492Z,5.30
2018-03-24T08:12:16.384Z,6.30
2018-03-24T08:14:50.092Z,7.20
2018-03-24T08:17:18.132Z,7.80
2018-03-24T08:19:49.704Z,7.90
2018-03-24T08:22:17.739Z,8.80
2018-03-24T08:24:53.859Z,8.30
2018-03-24T08:27:23.252Z,8.90
2018-03-24T08:29:52.384Z,8.90
2018-03-24T08:32:21.336Z,8.70
2018-03-24T08:34:51.347Z,8.60
2018-03-24T08:37:20.267Z,8.00
2018-03-24T08:39:50.964Z,8.00
2018-03-24T08:42:19.960Z,8.00
2018-03-24T08:44:53.048Z,8.60
2018-03-24T08:47:22.035Z,8.40
2018-03-24T08:49:51.058Z,9.30
2018-03-24T08:52:24.856Z,8.70
2018-03-24T08:54:52.899Z,8.70
2018-03-24T08:57:30.771Z,9.50
2018-03-24T09:00:03.821Z,9.10
2018-03-24T09:02:36.540Z,9.30
2018-03-24T09:05:11.899Z,9.30
2018-03-24T09:07:47.848Z,9.60
2018-03-24T09:10:21.916Z,10.70
2018-03-24T09:12:52.612Z,10.30
2018-03-24T09:15:30.412Z,10.20
2018-03-24T09:18:00.331Z,10.40
2018-03-24T09:20:38.248Z,10.60
2018-03-24T09:23:08.141Z,10.60
2018-03-24T09:25:41.340Z,10.30
2018-03-24T09:28:26.539Z,10.90
2018-03-24T09:31:04.820Z,12.80
2018-03-24T09:33:39.335Z,12.80
2018-03-24T09:36:17.251Z,12.00
2018-03-24T09:38:48.887Z,12.70
2018-03-24T09:41:28.528Z,13.60
2018-03-24T09:43:56.604Z,11.60
2018-03-24T09:46:39.943Z,10.90
2018-03-24T09:49:22.679Z,10.30
2018-03-24T09:51:51.492Z,8.30
2018-03-24T09:54:21.471Z,8.30
2018-03-24T09:56:52.187Z,8.10
2018-03-24T09:59:21.208Z,8.00
2018-03-24T10:01:55.875Z,9.10
2018-03-24T10:04:24.918Z,8.80
2018-03-24T10:06:54.923Z,8.10
2018-03-24T10:09:27.484Z,7.40
2018-03-24T10:12:02.999Z,7.50
2018-03-24T10:14:38.859Z,8.00
2018-03-24T10:17:11.027Z,9.40
2018-03-24T10:19:39.079Z,10.60
2018-03-24T10:25:26.035Z,9.00
2018-03-24T10:28:02.683Z,9.10
2018-03-24T10:30:36.363Z,8.60
2018-03-24T10:36:03.295Z,7.70
2018-03-24T10:38:31.319Z,7.90
2018-03-24T10:41:05.983Z,8.90
2018-03-24T10:43:38.967Z,8.90
2018-03-24T10:49:02.875Z,9.90
2018-03-24T10:51:42.279Z,9.90
2018-03-24T10:54:30.195Z,9.70
2018-03-24T10:57:02.016Z,9.30
2018-03-24T10:59:32.719Z,8.60
2018-03-24T11:02:00.758Z,8.60
2018-03-24T11:04:29.691Z,8.50
2018-03-24T11:06:57.714Z,9.30
2018-03-24T11:09:25.746Z,11.20
2018-03-24T11:11:58.053Z,13.90
2018-03-24T11:14:27.103Z,13.80
2018-03-24T11:17:01.720Z,12.90
2018-03-24T11:19:29.751Z,12.00
2018-03-24T11:22:15.195Z,12.00
2018-03-24T11:24:45.895Z,13.50
2018-03-24T11:27:24.379Z,13.50
2018-03-24T11:29:52.407Z,14.70
2018-03-24T11:32:25.567Z,12.00
2018-03-24T11:34:54.574Z,12.00
2018-03-24T11:37:26.622Z,11.10
2018-03-24T11:40:03.195Z,10.40
2018-03-24T11:42:43.019Z,10.40
2018-03-24T11:45:27.739Z,10.60
2018-03-24T11:47:57.531Z,10.30
2018-03-24T11:50:28.769Z,10.30
2018-03-24T11:53:00.379Z,10.20
2018-03-24T11:55:29.406Z,9.90
2018-03-24T11:57:57.434Z,10.70
2018-03-24T12:00:30.062Z,10.90
2018-03-24T12:02:58.091Z,10.80
2018-03-24T12:05:27.130Z,10.80
2018-03-24T12:07:55.151Z,10.60
2018-03-24T12:10:25.184Z,10.40
2018-03-24T12:12:53.226Z,10.30
2018-03-24T12:15:25.310Z,10.10
2018-03-24T12:17:55.274Z,9.90
2018-03-24T12:20:30.210Z,9.40
2018-03-24T12:23:00.243Z,9.40
2018-03-24T12:25:30.946Z,13.00
2018-03-24T12:28:02.518Z,12.90
2018-03-24T12:30:31.330Z,14.70
2018-03-24T12:33:00.280Z,14.70
2018-03-24T12:35:28.317Z,14.80
2018-03-24T12:37:58.234Z,15.80
2018-03-24T12:40:26.326Z,15.90
2018-03-24T12:42:54.386Z,15.30
2018-03-24T12:45:23.418Z,14.80
2018-03-24T12:47:52.266Z,16.90
2018-03-24T12:50:24.910Z,17.20
2018-03-24T12:52:58.142Z,17.20
2018-03-24T12:55:26.190Z,18.90
2018-03-24T12:58:02.361Z,19.10
2018-03-24T13:00:40.186Z,17.50
2018-03-24T13:03:10.213Z,17.50
2018-03-24T13:05:43.610Z,13.50
2018-03-24T13:08:13.482Z,12.40
2018-03-24T13:10:41.502Z,12.30
2018-03-24T13:13:12.787Z,12.90
2018-03-24T13:15:40.834Z,12.90
2018-03-24T13:18:10.838Z,12.40
2018-03-24T13:20:46.433Z,12.00
2018-03-24T13:23:14.446Z,12.00
2018-03-24T13:25:43.337Z,11.50
2018-03-24T13:28:13.198Z,11.40
2018-03-24T13:30:46.565Z,11.40
2018-03-24T13:33:21.605Z,11.20
2018-03-24T13:35:49.617Z,11.20
2018-03-24T13:38:17.646Z,11.90
2018-03-24T13:40:53.361Z,11.80
2018-03-24T13:43:25.430Z,12.20
2018-03-24T13:46:03.725Z,12.20
2018-03-24T13:48:41.481Z,11.70
2018-03-24T13:51:11.497Z,11.00
2018-03-24T13:53:40.557Z,10.80
2018-03-24T13:56:09.377Z,10.40
2018-03-24T13:58:37.441Z,10.40
2018-03-24T14:01:09.189Z,13.00
2018-03-24T14:03:39.547Z,13.00
2018-03-24T14:06:08.549Z,14.80
2018-03-24T14:08:37.617Z,15.90
2018-03-24T14:11:06.657Z,16.30
2018-03-24T14:13:34.681Z,16.80
2018-03-24T14:16:03.730Z,16.70
2018-03-24T14:18:32.513Z,15.30
2018-03-24T14:21:08.825Z,14.20
2018-03-24T14:23:36.840Z,14.20
2018-03-24T14:26:06.849Z,13.50
2018-03-24T14:28:34.877Z,14.50
2018-03-24T14:31:07.085Z,15.40
2018-03-24T14:33:42.389Z,16.00
2018-03-24T14:36:15.505Z,16.80
2018-03-24T14:38:43.565Z,17.70
2018-03-24T14:41:11.949Z,16.60
2018-03-24T14:43:46.465Z,16.70
2018-03-24T14:46:14.497Z,16.30
2018-03-24T14:48:43.452Z,15.70
2018-03-24T14:51:11.473Z,16.00
2018-03-24T14:53:39.501Z,15.50
2018-03-24T14:56:07.522Z,15.50
2018-03-24T14:58:38.797Z,16.00
2018-03-24T15:01:14.250Z,15.90
2018-03-24T15:03:43.241Z,16.00
2018-03-24T15:06:11.287Z,17.60
2018-03-24T15:08:43.809Z,17.80
2018-03-24T15:11:11.825Z,16.50
2018-03-24T15:13:41.761Z,15.90
2018-03-24T15:16:09.853Z,15.30
2018-03-24T15:18:38.857Z,15.00
2018-03-24T15:21:10.494Z,14.10
2018-03-24T15:23:42.401Z,13.50
2018-03-24T15:26:17.957Z,14.20
2018-03-24T15:28:58.529Z,13.70
2018-03-24T15:31:38.209Z,14.00
2018-03-24T15:34:23.073Z,13.30
2018-03-24T15:36:54.197Z,11.60
2018-03-24T15:39:27.196Z,10.70
2018-03-24T15:42:01.609Z,10.40
2018-03-24T15:44:29.640Z,10.50
2018-03-24T15:46:57.677Z,11.10
2018-03-24T15:49:31.359Z,11.60
2018-03-24T15:52:00.358Z,12.00
2018-03-24T15:54:30.362Z,12.30
2018-03-24T15:56:58.397Z,12.00
2018-03-24T15:59:30.598Z,11.90
2018-03-24T16:02:02.422Z,11.40
2018-03-24T16:04:36.152Z,10.60
2018-03-24T16:07:04.172Z,10.20
2018-03-24T16:09:32.205Z,9.90
2018-03-24T16:12:01.201Z,9.70
2018-03-24T16:14:29.204Z,9.40
2018-03-24T16:16:59.165Z,9.10
2018-03-24T16:19:31.136Z,9.00
2018-03-24T16:21:59.158Z,9.10
2018-03-24T16:24:27.180Z,9.20
2018-03-24T16:26:57.186Z,9.20
2018-03-24T16:29:27.205Z,9.20
2018-03-24T16:32:00.933Z,9.20
2018-03-24T16:34:29.725Z,8.90
2018-03-24T16:37:02.090Z,8.90
2018-03-24T16:39:35.924Z,8.90
2018-03-24T16:42:07.838Z,8.80
2018-03-24T16:44:35.852Z,8.60
2018-03-24T16:47:05.813Z,8.40
2018-03-24T16:49:34.813Z,8.30
2018-03-24T16:52:02.833Z,8.10
2018-03-24T16:54:43.805Z,8.00
2018-03-24T16:57:11.827Z,7.90
2018-03-24T16:59:46.508Z,7.70
2018-03-24T17:02:16.449Z,7.60
2018-03-24T17:04:45.456Z,7.40
2018-03-24T17:07:31.693Z,7.20
2018-03-24T17:10:01.668Z,7.10
2018-03-24T17:12:31.688Z,7.00
2018-03-24T17:15:11.387Z,6.80
2018-03-24T17:17:47.257Z,6.70
2018-03-24T17:20:16.277Z,6.60
2018-03-24T17:22:44.312Z,6.40
2018-03-24T17:25:12.344Z,6.40
2018-03-24T17:27:55.907Z,6.10
2018-03-24T17:30:23.917Z,6.10
2018-03-24T17:32:52.912Z,6.00
2018-03-24T17:35:24.052Z,5.90
2018-03-24T17:37:52.081Z,5.70
2018-03-24T17:40:28.421Z,5.70
2018-03-24T17:43:03.320Z,5.50
2018-03-24T17:45:31.383Z,5.50
2018-03-24T17:48:01.409Z,5.50
2018-03-24T17:50:29.581Z,5.50
2018-03-24T17:53:00.956Z,5.30
2018-03-24T17:55:35.468Z,5.20
2018-03-24T17:58:12.192Z,5.10
2018-03-24T18:00:40.224Z,5.00
2018-03-24T18:03:09.180Z,5.00
2018-03-24T18:05:38.092Z,4.90
2018-03-24T18:08:10.168Z,4.80
2018-03-24T18:10:41.989Z,4.80
2018-03-24T18:13:11.917Z,4.60
2018-03-24T18:15:43.476Z,4.50
2018-03-24T18:18:11.484Z,4.50
2018-03-24T18:20:46.124Z,4.30
2018-03-24T18:23:16.066Z,4.30
2018-03-24T18:25:45.057Z,4.30
2018-03-24T18:28:15.097Z,4.30
2018-03-24T18:30:43.096Z,4.30
2018-03-24T18:33:16.756Z,4.20
2018-03-24T18:35:46.764Z,4.20
2018-03-24T18:38:15.756Z,4.10
2018-03-24T18:40:53.156Z,4.20
2018-03-24T18:43:33.096Z,4.10
2018-03-24T18:46:01.128Z,4.10
2018-03-24T18:48:31.088Z,4.10
2018-03-24T18:51:00.840Z,4.10
2018-03-24T18:53:35.284Z,4.00
2018-03-24T18:56:05.231Z,4.10
2018-03-24T18:58:33.264Z,4.10
2018-03-24T19:01:04.968Z,4.00
2018-03-24T19:03:34.976Z,4.00
2018-03-24T19:06:03.012Z,4.00
2018-03-24T19:08:31.040Z,3.80
2018-03-24T19:11:01.796Z,3.80
2018-03-24T19:13:30.741Z,3.80
2018-03-24T19:15:58.763Z,3.80
2018-03-24T19:18:38.932Z,3.70
2018-03-24T19:21:08.787Z,3.60
2018-03-24T19:26:10.179Z,3.50
2018-03-24T19:28:40.223Z,3.50
2018-03-24T19:31:13.955Z,3.40
2018-03-24T19:36:35.883Z,3.40
2018-03-24T19:39:05.824Z,3.30
2018-03-24T19:41:39.004Z,3.30
2018-03-24T19:44:10.780Z,3.30
2018-03-24T19:46:43.847Z,3.20
2018-03-24T19:49:17.582Z,3.20
2018-03-24T19:51:58.090Z,3.10
2018-03-24T19:54:26.119Z,3.10
2018-03-24T19:56:54.159Z,3.10
2018-03-24T19:59:30.008Z,3.00
2018-03-24T20:02:01.172Z,3.00
2018-03-24T20:04:42.280Z,3.00
2018-03-24T20:07:20.207Z,3.00
2018-03-24T20:09:54.267Z,3.00
2018-03-24T20:12:27.331Z,3.00
2018-03-24T20:15:01.258Z,3.00
2018-03-24T20:17:31.118Z,2.90
2018-03-24T20:20:00.189Z,2.90
2018-03-24T20:22:33.335Z,2.90
2018-03-24T20:25:04.976Z,2.80
2018-03-24T20:27:35.019Z,2.80
2018-03-24T20:30:05.027Z,2.80
2018-03-24T20:32:34.012Z,2.70
2018-03-24T20:35:19.336Z,2.70
2018-03-24T20:37:49.331Z,2.70
2018-03-24T20:40:21.171Z,2.70
2018-03-24T20:42:49.228Z,2.70
2018-03-24T20:45:20.603Z,2.70
2018-03-24T20:47:53.519Z,2.70
2018-03-24T20:50:23.499Z,2.60
2018-03-24T20:52:51.527Z,2.60
2018-03-24T20:55:19.583Z,2.60
2018-03-24T20:57:47.639Z,2.50
2018-03-24T21:00:21.040Z,2.50
2018-03-24T21:02:53.791Z,2.40
2018-03-24T21:05:29.319Z,2.40
2018-03-24T21:08:00.659Z,2.40
2018-03-24T21:10:35.263Z,2.40
2018-03-24T21:13:08.171Z,2.40
2018-03-24T21:15:37.851Z,2.40
2018-03-24T21:18:12.447Z,2.30
2018-03-24T21:20:42.642Z,2.40
2018-03-24T21:23:10.679Z,2.40
2018-03-24T21:25:39.640Z,2.40
2018-03-24T21:28:07.827Z,2.30
2018-03-24T21:30:37.623Z,2.30
2018-03-24T21:33:07.066Z,2.20
2018-03-24T21:35:41.879Z,2.20
2018-03-24T21:38:09.951Z,2.20
2018-03-24T21:40:42.095Z,2.20
2018-03-24T21:43:11.423Z,2.20
2018-03-24T21:45:43.891Z,2.20
2018-03-24T21:48:13.467Z,2.20
2018-03-24T21:50:43.577Z,2.20
2018-03-24T21:53:12.566Z,2.20
2018-03-24T21:55:51.643Z,2.20
2018-03-24T21:58:22.056Z,2.30
2018-03-24T22:00:57.711Z,2.20
2018-03-24T22:03:28.099Z,2.20
2018-03-24T22:05:59.939Z,2.20
2018-03-24T22:08:29.723Z,2.10
2018-03-24T22:10:57.784Z,2.10
2018-03-24T22:13:26.798Z,2.10
2018-03-24T22:15:57.154Z,2.10
2018-03-24T22:18:39.519Z,2.10
2018-03-24T22:21:09.588Z,2.10
2018-03-24T22:23:39.543Z,2.20
2018-03-24T22:26:07.782Z,2.10
2018-03-24T22:28:37.782Z,2.10
2018-03-24T22:31:05.878Z,2.10
2018-03-24T22:33:45.458Z,2.10
2018-03-24T22:36:13.506Z,2.10
2018-03-24T22:38:42.519Z,2.10
2018-03-24T22:41:12.558Z,2.00
2018-03-24T22:43:45.858Z,2.00
2018-03-24T22:46:16.582Z,1.90
2018-03-24T22:48:45.430Z,1.90
2018-03-24T22:51:13.487Z,1.80
2018-03-24T22:53:41.530Z,1.80
2018-03-24T22:56:11.574Z,1.70
2018-03-24T22:58:42.634Z,1.50
2018-03-24T23:01:10.674Z,1.40
2018-03-24T23:03:38.762Z,1.30
2018-03-24T23:06:08.138Z,1.10
2018-03-24T23:08:38.317Z,1.00
2018-03-24T23:11:10.018Z,0.70
2018-03-24T23:13:38.042Z,0.30
2018-03-24T23:16:08.094Z,0.10
2018-03-24T23:18:37.022Z,-0.10
2018-03-24T23:21:09.977Z,-0.10
2018-03-24T23:23:38.030Z,-0.10
2018-03-24T23:26:07.014Z,-0.20
2018-03-24T23:28:37.884Z,0.10
2018-03-24T23:31:05.950Z,0.00
2018-03-24T23:33:38.005Z,0.10
2018-03-24T23:36:12.413Z,0.30
2018-03-24T23:38:44.496Z,0.20
2018-03-24T23:41:20.222Z,0.10
2018-03-24T23:44:00.915Z,0.10
2018-03-24T23:46:29.330Z,0.20
2018-03-24T23:49:00.406Z,0.10
2018-03-24T23:51:29.661Z,-0.10
2018-03-24T23:53:59.018Z,-0.30
2018-03-24T23:56:44.814Z,-0.50
2018-03-24T23:59:13.946Z,-0.70
